首页
METAR-TAF:

METAR-TAF

机场 :

舊金山國際機場

旧金山, 加利福尼亚州, 美国

纬度: 37-37-11N, 经度: 122-21-53W, 海拔: 3米

当前天气观测

该预报发布于18分钟前的20:56 UTC
风速3节,风向北转西北
温度 23°C
湿度 41%
气压 1018 hPa
能見度: 16.1公里
少量云层高于20000英尺

METAR: KSFO 172056Z 34003KT 10SM FEW200 23/09 A3005 RMK AO2 SLP177 T02280089 58025 $

时间: 13:14 (21:14 UTC)

预报

该预报发布于3小时和37分钟前的17:37 UTC
预报有效从17日的 18点(UTC)到 18日的 24点(UTC)
风速4节,风向
能見度: 10公里
少量云层高于600英尺
从 17日的 2200点(UTC)
风速10节,风向西转西北
能見度: 10公里
天空无云
从 18日的 0400点(UTC)
风速5节,风向西转西北
能見度: 10公里
少量云层高于500英尺
从 18日的 1200点(UTC)
风速4节,风向多变
能見度: 10公里
少量云层高于500英尺
从 18日的 2200点(UTC)
风速13节,风向西转西北
能見度: 10公里
天空无云

TAF: KSFO 171737Z 1718/1824 01004KT P6SM FEW006 FM172200 29010KT P6SM SKC FM180400 29005KT P6SM FEW005 FM181200 VRB04KT P6SM FEW005 FM182200 29013KT P6SM SKC

超过4000个机场的气象观测和天气预报(METAR&TAF报告)。

可查询的气象台以黄色和红色小点在地图上表示。

将鼠标移到小点上方,可查看气象台名称。

然后点击查看天气观测和预报。

如需切换地图:点击带黑十字的绿色按钮放大地图;点击带横线的绿色按钮缩小地图;或者点击绿色箭头查看邻近地区的地图。


METAR-TAF: